Nearby METAR Reports

 

KHOT - Hot Springs, Arkansas, USA
Distance from station: W 8mi, 14km
Updated: 08/24/2019 10:53am
Overcast
Overcast
 Wind from ENE
Wind: ENE 7 mph , 11 km/h
Temperature: 81°F , 27°C
Heat Index: 87°F , 31°C
Dew Point: 75°F , 24°C
Humidity: 84%
Barometer: 30.01 inHg , 1016.3 hPa
Clouds: Overcast
Visibility: 10 miles , 16 km
Cloud details: Overcast 1800 ft
2019/08/24 15:53 KHOT 241553Z AUTO 07006KT 10SM OVC018 27/24 A3001 RMK AO2 SLP155 T02720239
KMWT - Mount Ida, Arkansas, USA
Distance from station: W 36mi, 58km
Updated: 08/24/2019 10:53am
Overcast
Overcast
 Wind from SE
Wind: SE 5 mph , 7 km/h
Temperature: 79°F , 26°C
Dew Point: 73°F , 23°C
Humidity: 84%
Barometer: 30.01 inHg , 1016.3 hPa
Clouds: Overcast
Visibility: 10 miles , 16 km
Cloud details: Overcast 1200 ft
2019/08/24 15:53 KMWT 241553Z AUTO 14004KT 10SM OVC012 26/23 A3001 RMK AO2 RAB24E36 SLP149 P0000 T02560228
 
KLIT - Little Rock, Arkansas, USA
Distance from station: ENE 45mi, 73km
Updated: 08/24/2019 10:53am
Overcast
Overcast
 Wind from E
Wind: E 3 mph , 6 km/h
Temperature: 81°F , 27°C
Heat Index: 86°F , 30°C
Dew Point: 73°F , 23°C
Humidity: 79%
Barometer: 30.01 inHg , 1016.3 hPa
Clouds: Overcast
Visibility: 10 miles , 16 km
Cloud details: Mostly cloudy 1500 ft
Overcast 3000 ft
2019/08/24 15:53 KLIT 241553Z 08003KT 10SM BKN015 OVC030 27/23 A3001 RMK AO2 SLP163 BINOVC T02670233
KLRF - Little Rock Afb, Arkansas, USA
Distance from station: NE 56mi, 89km
Updated: 08/24/2019 10:56am
Overcast
Overcast
 Wind from NE
Wind: NE 8 mph , 13 km/h
Temperature: 75°F , 24°C
Dew Point: 75°F , 24°C
Humidity: 100%
Barometer: 30.03 inHg , 1016.9 hPa
Clouds: Overcast
Visibility: 10 miles , 16 km
Cloud details: Overcast 400 ft
2019/08/24 15:56 KLRF 241556Z AUTO 05007KT 10SM OVC004 24/24 A3003 RMK AO2 SLP169 T02430241 $